sensor_id;sensor_type;location;lat;lon;timestamp;pressure;altitude;pressure_sealevel;temperature;humidity
7748;BME280;3918;42.564;23.164;2022-08-19T05:02:38;-11650.84;;;-142.29;51.61
7748;BME280;3918;42.564;23.164;2022-08-19T05:05:05;-11650.84;;;-142.29;49.01
7748;BME280;3918;42.564;23.164;2022-08-19T05:07:32;-11650.84;;;-142.29;48.46
7748;BME280;3918;42.564;23.164;2022-08-19T05:09:59;-11650.84;;;-142.29;47.83
7748;BME280;3918;42.564;23.164;2022-08-19T05:12:26;-11650.84;;;-142.29;49.34
7748;BME280;3918;42.564;23.164;2022-08-19T05:14:53;-11650.84;;;-142.29;50.20
7748;BME280;3918;42.564;23.164;2022-08-19T05:17:22;-11650.84;;;-142.29;49.21
7748;BME280;3918;42.564;23.164;2022-08-19T05:19:50;-11650.84;;;-142.29;49.14
7748;BME280;3918;42.564;23.164;2022-08-19T05:22:44;-11650.84;;;-142.29;48.94
7748;BME280;3918;42.564;23.164;2022-08-19T05:25:13;-11650.84;;;-142.29;48.98
7748;BME280;3918;42.564;23.164;2022-08-19T05:27:41;-11650.84;;;-142.29;46.86
7748;BME280;3918;42.564;23.164;2022-08-19T05:30:10;-11650.84;;;-142.29;46.78
7748;BME280;3918;42.564;23.164;2022-08-19T05:32:37;-11650.84;;;-142.29;46.01
7748;BME280;3918;42.564;23.164;2022-08-19T05:35:06;-11650.84;;;-142.29;43.93
7748;BME280;3918;42.564;23.164;2022-08-19T05:37:34;-11650.84;;;-142.29;42.30
7748;BME280;3918;42.564;23.164;2022-08-19T05:40:01;-11650.84;;;-142.29;41.83
7748;BME280;3918;42.564;23.164;2022-08-19T05:42:28;-11650.84;;;-142.29;41.61
7748;BME280;3918;42.564;23.164;2022-08-19T05:44:55;-11650.84;;;-142.29;41.80
7748;BME280;3918;42.564;23.164;2022-08-19T05:47:22;-11650.84;;;-142.29;41.46
7748;BME280;3918;42.564;23.164;2022-08-19T05:49:49;-11650.84;;;-142.29;40.01
7748;BME280;3918;42.564;23.164;2022-08-19T05:52:18;-11650.84;;;-142.29;39.93
7748;BME280;3918;42.564;23.164;2022-08-19T05:54:46;-11650.84;;;-142.29;39.71
7748;BME280;3918;42.564;23.164;2022-08-19T05:57:13;-11650.84;;;-142.29;38.12
7748;BME280;3918;42.564;23.164;2022-08-19T05:59:40;-11650.84;;;-142.29;37.84
7748;BME280;3918;42.564;23.164;2022-08-19T06:02:07;-11650.84;;;-142.29;36.06
7748;BME280;3918;42.564;23.164;2022-08-19T06:04:34;-11650.84;;;-142.29;37.00
7748;BME280;3918;42.564;23.164;2022-08-19T06:07:01;-11650.84;;;-142.29;36.35
7748;BME280;3918;42.564;23.164;2022-08-19T06:09:30;-11650.84;;;-142.29;35.77
7748;BME280;3918;42.564;23.164;2022-08-19T06:11:58;-11650.84;;;-142.29;34.59
7748;BME280;3918;42.564;23.164;2022-08-19T06:14:27;-11650.84;;;-142.29;36.10
7748;BME280;3918;42.564;23.164;2022-08-19T06:16:54;-11650.84;;;-142.29;37.37
7748;BME280;3918;42.564;23.164;2022-08-19T06:19:22;-11650.84;;;-142.29;36.57
7748;BME280;3918;42.564;23.164;2022-08-19T06:21:51;-11650.84;;;-142.29;36.74
7748;BME280;3918;42.564;23.164;2022-08-19T06:24:21;-11650.84;;;-142.29;37.99
7748;BME280;3918;42.564;23.164;2022-08-19T06:26:52;-11650.84;;;-142.29;37.55
7748;BME280;3918;42.564;23.164;2022-08-19T06:29:22;-11650.84;;;-142.29;38.14
7748;BME280;3918;42.564;23.164;2022-08-19T06:31:55;-11650.84;;;-142.29;36.21
7748;BME280;3918;42.564;23.164;2022-08-19T06:34:23;-11650.84;;;-142.29;36.73
7748;BME280;3918;42.564;23.164;2022-08-19T06:36:51;-11650.84;;;-142.29;35.41
7748;BME280;3918;42.564;23.164;2022-08-19T06:39:21;-11650.84;;;-142.29;34.40
7748;BME280;3918;42.564;23.164;2022-08-19T06:41:53;-11650.84;;;-142.29;33.78
7748;BME280;3918;42.564;23.164;2022-08-19T06:44:22;-11650.84;;;-142.29;33.94
7748;BME280;3918;42.564;23.164;2022-08-19T06:46:50;-11650.84;;;-142.29;35.00
7748;BME280;3918;42.564;23.164;2022-08-19T06:49:17;-11650.84;;;-142.29;34.18
7748;BME280;3918;42.564;23.164;2022-08-19T06:51:46;-11650.84;;;-142.29;34.21
7748;BME280;3918;42.564;23.164;2022-08-19T06:54:14;-11650.84;;;-142.29;34.62
7748;BME280;3918;42.564;23.164;2022-08-19T06:56:41;-11650.84;;;-142.29;34.65
7748;BME280;3918;42.564;23.164;2022-08-19T06:59:13;-11650.84;;;-142.29;34.77
7748;BME280;3918;42.564;23.164;2022-08-19T07:01:42;-11650.84;;;-142.29;34.13
7748;BME280;3918;42.564;23.164;2022-08-19T07:04:11;-11650.84;;;-142.29;33.81
7748;BME280;3918;42.564;23.164;2022-08-19T07:06:38;-11650.84;;;-142.29;33.61
7748;BME280;3918;42.564;23.164;2022-08-19T07:09:08;-11650.84;;;-142.29;33.38
7748;BME280;3918;42.564;23.164;2022-08-19T07:11:35;-11650.84;;;-142.29;33.14
7748;BME280;3918;42.564;23.164;2022-08-19T07:14:03;-11650.84;;;-142.29;34.38
7748;BME280;3918;42.564;23.164;2022-08-19T07:16:33;-11650.84;;;-142.29;33.74
7748;BME280;3918;42.564;23.164;2022-08-19T07:19:00;-11650.84;;;-142.29;33.07
7748;BME280;3918;42.564;23.164;2022-08-19T07:21:28;-11650.84;;;-142.29;33.72
7748;BME280;3918;42.564;23.164;2022-08-19T07:23:55;-11650.84;;;-142.29;32.36
7748;BME280;3918;42.564;23.164;2022-08-19T07:26:26;-11650.84;;;-142.29;32.94
7748;BME280;3918;42.564;23.164;2022-08-19T07:28:54;-11650.84;;;-142.29;32.32
7748;BME280;3918;42.564;23.164;2022-08-19T07:31:24;-11650.84;;;-142.29;32.59
7748;BME280;3918;42.564;23.164;2022-08-19T07:33:54;-11650.84;;;-142.29;33.04
7748;BME280;3918;42.564;23.164;2022-08-19T07:36:24;-11650.84;;;-142.29;33.72
7748;BME280;3918;42.564;23.164;2022-08-19T07:38:51;-11650.84;;;-142.29;34.14
7748;BME280;3918;42.564;23.164;2022-08-19T07:41:22;-11650.84;;;-142.29;33.73
7748;BME280;3918;42.564;23.164;2022-08-19T07:43:50;-11650.84;;;-142.29;32.53
7748;BME280;3918;42.564;23.164;2022-08-19T07:46:17;-11650.84;;;-142.29;32.56
7748;BME280;3918;42.564;23.164;2022-08-19T07:48:46;-11650.84;;;-142.29;32.71
7748;BME280;3918;42.564;23.164;2022-08-19T07:51:16;-11650.84;;;-142.29;32.35
7748;BME280;3918;42.564;23.164;2022-08-19T07:53:44;-11650.84;;;-142.29;33.24
7748;BME280;3918;42.564;23.164;2022-08-19T07:56:12;-11650.84;;;-142.29;32.29
7748;BME280;3918;42.564;23.164;2022-08-19T07:58:42;-11650.84;;;-142.29;32.32
7748;BME280;3918;42.564;23.164;2022-08-19T08:01:12;-11650.84;;;-142.29;34.16
7748;BME280;3918;42.564;23.164;2022-08-19T08:03:40;-11650.84;;;-142.29;34.46
7748;BME280;3918;42.564;23.164;2022-08-19T08:06:26;-11650.84;;;-142.29;33.10
7748;BME280;3918;42.564;23.164;2022-08-19T08:09:13;-11650.84;;;-142.29;34.65
7748;BME280;3918;42.564;23.164;2022-08-19T08:11:48;-11650.84;;;-142.29;33.22
7748;BME280;3918;42.564;23.164;2022-08-19T08:14:17;-11650.84;;;-142.29;32.66
7748;BME280;3918;42.564;23.164;2022-08-19T08:16:44;-11650.84;;;-142.29;32.23
7748;BME280;3918;42.564;23.164;2022-08-19T08:19:13;-11650.84;;;-142.29;32.56
7748;BME280;3918;42.564;23.164;2022-08-19T08:21:42;-11650.84;;;-142.29;33.21
7748;BME280;3918;42.564;23.164;2022-08-19T08:24:09;-11650.84;;;-142.29;31.98
7748;BME280;3918;42.564;23.164;2022-08-19T08:26:37;-11650.84;;;-142.29;30.79
7748;BME280;3918;42.564;23.164;2022-08-19T08:29:05;-11650.84;;;-142.29;32.51
7748;BME280;3918;42.564;23.164;2022-08-19T08:31:32;-11650.84;;;-142.29;32.28
7748;BME280;3918;42.564;23.164;2022-08-19T08:34:00;-11650.84;;;-142.29;32.04
7748;BME280;3918;42.564;23.164;2022-08-19T08:36:27;-11650.84;;;-142.29;32.59
7748;BME280;3918;42.564;23.164;2022-08-19T08:38:55;-11650.84;;;-142.29;32.46
7748;BME280;3918;42.564;23.164;2022-08-19T08:41:28;-11650.84;;;-142.29;32.37
7748;BME280;3918;42.564;23.164;2022-08-19T08:43:57;-11650.84;;;-142.29;32.21
7748;BME280;3918;42.564;23.164;2022-08-19T08:46:30;-11650.84;;;-142.29;31.97
7748;BME280;3918;42.564;23.164;2022-08-19T08:49:05;-11650.84;;;-142.29;32.86
7748;BME280;3918;42.564;23.164;2022-08-19T08:51:46;-11650.84;;;-142.29;31.61
7748;BME280;3918;42.564;23.164;2022-08-19T08:54:20;-11650.84;;;-142.29;31.94
7748;BME280;3918;42.564;23.164;2022-08-19T08:56:49;-11650.84;;;-142.29;33.21
7748;BME280;3918;42.564;23.164;2022-08-19T08:59:21;-11650.84;;;-142.29;33.81
7748;BME280;3918;42.564;23.164;2022-08-19T09:01:49;-11650.84;;;-142.29;32.95
7748;BME280;3918;42.564;23.164;2022-08-19T09:04:16;-11650.84;;;-142.29;32.54
7748;BME280;3918;42.564;23.164;2022-08-19T09:06:48;-11650.84;;;-142.29;34.70
7748;BME280;3918;42.564;23.164;2022-08-19T09:09:26;-11650.84;;;-142.29;31.94
7748;BME280;3918;42.564;23.164;2022-08-19T09:12:14;-11650.84;;;-142.29;31.94
7748;BME280;3918;42.564;23.164;2022-08-19T09:14:48;-11650.84;;;-142.29;34.35
7748;BME280;3918;42.564;23.164;2022-08-19T09:17:17;-11650.84;;;-142.29;35.36
7748;BME280;3918;42.564;23.164;2022-08-19T09:19:50;-11650.84;;;-142.29;33.75
7748;BME280;3918;42.564;23.164;2022-08-19T09:22:17;-11650.84;;;-142.29;34.29
7748;BME280;3918;42.564;23.164;2022-08-19T09:24:48;-11650.84;;;-142.29;34.39
7748;BME280;3918;42.564;23.164;2022-08-19T09:27:15;-11650.84;;;-142.29;34.81
7748;BME280;3918;42.564;23.164;2022-08-19T09:29:42;-11650.84;;;-142.29;34.73
7748;BME280;3918;42.564;23.164;2022-08-19T09:32:09;-11650.84;;;-142.29;35.12
7748;BME280;3918;42.564;23.164;2022-08-19T09:34:36;-11650.84;;;-142.29;36.03
7748;BME280;3918;42.564;23.164;2022-08-19T09:37:03;-11650.84;;;-142.29;35.97
7748;BME280;3918;42.564;23.164;2022-08-19T09:39:30;-11650.84;;;-142.29;37.37
7748;BME280;3918;42.564;23.164;2022-08-19T09:41:58;-11650.84;;;-142.29;37.84
7748;BME280;3918;42.564;23.164;2022-08-19T09:44:25;-11650.84;;;-142.29;37.11
7748;BME280;3918;42.564;23.164;2022-08-19T09:46:52;-11650.84;;;-142.29;37.98
7748;BME280;3918;42.564;23.164;2022-08-19T09:49:19;-11650.84;;;-142.29;40.44
7748;BME280;3918;42.564;23.164;2022-08-19T09:51:49;-11650.84;;;-142.29;38.77
7748;BME280;3918;42.564;23.164;2022-08-19T09:54:17;-11650.84;;;-142.29;39.16
7748;BME280;3918;42.564;23.164;2022-08-19T09:56:44;-11650.84;;;-142.29;40.19
7748;BME280;3918;42.564;23.164;2022-08-19T09:59:13;-11650.84;;;-142.29;38.93
7748;BME280;3918;42.564;23.164;2022-08-19T10:01:40;-11650.84;;;-142.29;39.61
7748;BME280;3918;42.564;23.164;2022-08-19T10:04:06;-11650.84;;;-142.29;39.26
7748;BME280;3918;42.564;23.164;2022-08-19T10:06:36;-11650.84;;;-142.29;39.33
7748;BME280;3918;42.564;23.164;2022-08-19T10:09:04;-11650.84;;;-142.29;37.17
7748;BME280;3918;42.564;23.164;2022-08-19T10:11:33;-11650.84;;;-142.29;36.54
7748;BME280;3918;42.564;23.164;2022-08-19T10:14:00;-11650.84;;;-142.29;36.11
7748;BME280;3918;42.564;23.164;2022-08-19T10:16:29;-11650.84;;;-142.29;37.93
7748;BME280;3918;42.564;23.164;2022-08-19T10:18:56;-11650.84;;;-142.29;36.97
7748;BME280;3918;42.564;23.164;2022-08-19T10:21:25;-11650.84;;;-142.29;38.40
7748;BME280;3918;42.564;23.164;2022-08-19T10:23:58;-11650.84;;;-142.29;35.80
7748;BME280;3918;42.564;23.164;2022-08-19T10:26:27;-11650.84;;;-142.29;34.96
7748;BME280;3918;42.564;23.164;2022-08-19T10:28:54;-11650.84;;;-142.29;36.60
7748;BME280;3918;42.564;23.164;2022-08-19T10:31:23;-11650.84;;;-142.29;39.14
7748;BME280;3918;42.564;23.164;2022-08-19T10:33:52;-11650.84;;;-142.29;37.38
7748;BME280;3918;42.564;23.164;2022-08-19T10:36:26;-11650.84;;;-142.29;38.11
7748;BME280;3918;42.564;23.164;2022-08-19T10:38:56;-11650.84;;;-142.29;33.18
7748;BME280;3918;42.564;23.164;2022-08-19T10:41:26;-11650.84;;;-142.29;33.19
7748;BME280;3918;42.564;23.164;2022-08-19T10:43:54;-11650.84;;;-142.29;34.53
7748;BME280;3918;42.564;23.164;2022-08-19T10:46:24;-11650.84;;;-142.29;36.56
7748;BME280;3918;42.564;23.164;2022-08-19T10:48:53;-11650.84;;;-142.29;35.75
7748;BME280;3918;42.564;23.164;2022-08-19T10:51:21;-11650.84;;;-142.29;35.85
7748;BME280;3918;42.564;23.164;2022-08-19T10:54:05;-11650.84;;;-142.29;37.11
7748;BME280;3918;42.564;23.164;2022-08-19T10:56:33;-11650.84;;;-142.29;35.73
7748;BME280;3918;42.564;23.164;2022-08-19T10:59:20;-11650.84;;;-142.29;35.64
7748;BME280;3918;42.564;23.164;2022-08-19T11:01:48;-11650.84;;;-142.29;36.06
7748;BME280;3918;42.564;23.164;2022-08-19T11:04:19;-11650.84;;;-142.29;35.64
7748;BME280;3918;42.564;23.164;2022-08-19T11:06:48;-11650.84;;;-142.29;35.41
7748;BME280;3918;42.564;23.164;2022-08-19T11:09:19;-11650.84;;;-142.29;35.50
7748;BME280;3918;42.564;23.164;2022-08-19T11:11:46;-11650.84;;;-142.29;35.71
7748;BME280;3918;42.564;23.164;2022-08-19T11:14:15;-11650.84;;;-142.29;36.53
7748;BME280;3918;42.564;23.164;2022-08-19T11:16:43;-11650.84;;;-142.29;36.63
7748;BME280;3918;42.564;23.164;2022-08-19T11:19:11;-11650.84;;;-142.29;35.53
7748;BME280;3918;42.564;23.164;2022-08-19T11:21:42;-11650.84;;;-142.29;35.44
7748;BME280;3918;42.564;23.164;2022-08-19T11:24:11;-11650.84;;;-142.29;35.71
7748;BME280;3918;42.564;23.164;2022-08-19T11:26:40;-11650.84;;;-142.29;36.17
7748;BME280;3918;42.564;23.164;2022-08-19T11:29:09;-11650.84;;;-142.29;37.55
7748;BME280;3918;42.564;23.164;2022-08-19T11:31:39;-11650.84;;;-142.29;36.20
7748;BME280;3918;42.564;23.164;2022-08-19T11:34:09;-11650.84;;;-142.29;36.69
7748;BME280;3918;42.564;23.164;2022-08-19T11:36:38;-11650.84;;;-142.29;35.62
7748;BME280;3918;42.564;23.164;2022-08-19T11:39:07;-11650.84;;;-142.29;35.56
7748;BME280;3918;42.564;23.164;2022-08-19T11:41:34;-11650.84;;;-142.29;36.61
7748;BME280;3918;42.564;23.164;2022-08-19T11:44:02;-11650.84;;;-142.29;35.68
7748;BME280;3918;42.564;23.164;2022-08-19T11:46:30;-11650.84;;;-142.29;36.33
7748;BME280;3918;42.564;23.164;2022-08-19T11:48:58;-11650.84;;;-142.29;36.63
7748;BME280;3918;42.564;23.164;2022-08-19T11:51:27;-11650.84;;;-142.29;35.87
7748;BME280;3918;42.564;23.164;2022-08-19T11:53:55;-11650.84;;;-142.29;35.44
7748;BME280;3918;42.564;23.164;2022-08-19T11:56:24;-11650.84;;;-142.29;36.71
7748;BME280;3918;42.564;23.164;2022-08-19T11:58:52;-11650.84;;;-142.29;36.06
7748;BME280;3918;42.564;23.164;2022-08-19T12:01:21;-11650.84;;;-142.29;36.03
7748;BME280;3918;42.564;23.164;2022-08-19T12:03:50;-11650.84;;;-142.29;36.14
7748;BME280;3918;42.564;23.164;2022-08-19T12:06:19;-11650.84;;;-142.29;35.36
7748;BME280;3918;42.564;23.164;2022-08-19T12:08:49;-11650.84;;;-142.29;36.00
7748;BME280;3918;42.564;23.164;2022-08-19T12:11:16;-11650.84;;;-142.29;36.42
7748;BME280;3918;42.564;23.164;2022-08-19T12:13:44;-11650.84;;;-142.29;36.09
7748;BME280;3918;42.564;23.164;2022-08-19T12:16:14;-11650.84;;;-142.29;36.21
7748;BME280;3918;42.564;23.164;2022-08-19T12:18:42;-11650.84;;;-142.29;36.12
7748;BME280;3918;42.564;23.164;2022-08-19T12:21:10;-11650.84;;;-142.29;36.23
7748;BME280;3918;42.564;23.164;2022-08-19T12:23:39;-11650.84;;;-142.29;35.77
7748;BME280;3918;42.564;23.164;2022-08-19T12:26:06;-11650.84;;;-142.29;36.34
7748;BME280;3918;42.564;23.164;2022-08-19T12:28:33;-11650.84;;;-142.29;36.26
7748;BME280;3918;42.564;23.164;2022-08-19T12:31:01;-11650.84;;;-142.29;35.32
7748;BME280;3918;42.564;23.164;2022-08-19T12:33:29;-11650.84;;;-142.29;36.11
7748;BME280;3918;42.564;23.164;2022-08-19T12:36:00;-11650.84;;;-142.29;35.82
7748;BME280;3918;42.564;23.164;2022-08-19T12:38:28;-11650.84;;;-142.29;36.54
7748;BME280;3918;42.564;23.164;2022-08-19T12:40:55;-11650.84;;;-142.29;36.19
7748;BME280;3918;42.564;23.164;2022-08-19T12:43:22;-11650.84;;;-142.29;35.64
7748;BME280;3918;42.564;23.164;2022-08-19T12:45:49;-11650.84;;;-142.29;35.59
7748;BME280;3918;42.564;23.164;2022-08-19T12:48:18;-11650.84;;;-142.29;36.87
7748;BME280;3918;42.564;23.164;2022-08-19T12:50:45;-11650.84;;;-142.29;36.01
7748;BME280;3918;42.564;23.164;2022-08-19T12:53:12;-11650.84;;;-142.29;36.35
7748;BME280;3918;42.564;23.164;2022-08-19T12:55:39;-11650.84;;;-142.29;36.02
7748;BME280;3918;42.564;23.164;2022-08-19T12:58:06;-11650.84;;;-142.29;35.95
7748;BME280;3918;42.564;23.164;2022-08-19T13:00:33;-11650.84;;;-142.29;36.55
7748;BME280;3918;42.564;23.164;2022-08-19T13:03:00;-11650.84;;;-142.29;35.95
7748;BME280;3918;42.564;23.164;2022-08-19T13:05:31;-11650.84;;;-142.29;35.71
7748;BME280;3918;42.564;23.164;2022-08-19T13:07:59;-11650.84;;;-142.29;36.24
7748;BME280;3918;42.564;23.164;2022-08-19T13:10:32;-11650.84;;;-142.29;36.36
7748;BME280;3918;42.564;23.164;2022-08-19T13:13:02;-11650.84;;;-142.29;36.44
7748;BME280;3918;42.564;23.164;2022-08-19T13:15:33;-11650.84;;;-142.29;36.07
7748;BME280;3918;42.564;23.164;2022-08-19T13:18:00;-11650.84;;;-142.29;36.23
7748;BME280;3918;42.564;23.164;2022-08-19T13:20:29;-11650.84;;;-142.29;36.03
7748;BME280;3918;42.564;23.164;2022-08-19T13:22:56;-11650.84;;;-142.29;35.66
7748;BME280;3918;42.564;23.164;2022-08-19T13:25:24;-11650.84;;;-142.29;35.59
7748;BME280;3918;42.564;23.164;2022-08-19T13:27:50;-11650.84;;;-142.29;35.37
7748;BME280;3918;42.564;23.164;2022-08-19T13:30:19;-11650.84;;;-142.29;35.75
7748;BME280;3918;42.564;23.164;2022-08-19T13:33:03;-11650.84;;;-142.29;35.89
7748;BME280;3918;42.564;23.164;2022-08-19T13:35:45;-11650.84;;;-142.29;36.11
7748;BME280;3918;42.564;23.164;2022-08-19T13:38:13;-11650.84;;;-142.29;35.85
7748;BME280;3918;42.564;23.164;2022-08-19T13:40:41;-11650.84;;;-142.29;35.67
7748;BME280;3918;42.564;23.164;2022-08-19T13:43:09;-11650.84;;;-142.29;36.50
7748;BME280;3918;42.564;23.164;2022-08-19T13:45:36;-11650.84;;;-142.29;36.22
7748;BME280;3918;42.564;23.164;2022-08-19T13:48:04;-11650.84;;;-142.29;36.27
7748;BME280;3918;42.564;23.164;2022-08-19T13:50:35;-11650.84;;;-142.29;35.74
7748;BME280;3918;42.564;23.164;2022-08-19T13:53:03;-11650.84;;;-142.29;36.65
7748;BME280;3918;42.564;23.164;2022-08-19T13:55:30;-11650.84;;;-142.29;36.48
7748;BME280;3918;42.564;23.164;2022-08-19T13:57:59;-11650.84;;;-142.29;36.74
7748;BME280;3918;42.564;23.164;2022-08-19T14:00:29;-11650.84;;;-142.29;36.71
7748;BME280;3918;42.564;23.164;2022-08-19T14:02:56;-11650.84;;;-142.29;37.11
7748;BME280;3918;42.564;23.164;2022-08-19T14:05:24;-11650.84;;;-142.29;35.54
7748;BME280;3918;42.564;23.164;2022-08-19T14:07:51;-11650.84;;;-142.29;36.14
7748;BME280;3918;42.564;23.164;2022-08-19T14:10:21;-11650.84;;;-142.29;36.34
7748;BME280;3918;42.564;23.164;2022-08-19T14:12:48;-11650.84;;;-142.29;36.25
7748;BME280;3918;42.564;23.164;2022-08-19T14:15:15;-11650.84;;;-142.29;36.62
7748;BME280;3918;42.564;23.164;2022-08-19T14:17:44;-11650.84;;;-142.29;36.74
7748;BME280;3918;42.564;23.164;2022-08-19T14:20:13;-11650.84;;;-142.29;36.16
7748;BME280;3918;42.564;23.164;2022-08-19T14:22:41;-11650.84;;;-142.29;36.13
7748;BME280;3918;42.564;23.164;2022-08-19T14:25:11;-11650.84;;;-142.29;36.88
7748;BME280;3918;42.564;23.164;2022-08-19T14:27:41;-11650.84;;;-142.29;36.41
7748;BME280;3918;42.564;23.164;2022-08-19T14:30:09;-11650.84;;;-142.29;36.56
7748;BME280;3918;42.564;23.164;2022-08-19T14:32:37;-11650.84;;;-142.29;37.18
7748;BME280;3918;42.564;23.164;2022-08-19T14:35:05;-11650.84;;;-142.29;36.40
7748;BME280;3918;42.564;23.164;2022-08-19T14:37:33;-11650.84;;;-142.29;37.16
7748;BME280;3918;42.564;23.164;2022-08-19T14:40:00;-11650.84;;;-142.29;36.90
7748;BME280;3918;42.564;23.164;2022-08-19T14:42:27;-11650.84;;;-142.29;37.56
7748;BME280;3918;42.564;23.164;2022-08-19T14:44:58;-11650.84;;;-142.29;36.65
7748;BME280;3918;42.564;23.164;2022-08-19T14:47:25;-11650.84;;;-142.29;37.02
7748;BME280;3918;42.564;23.164;2022-08-19T14:49:52;-11650.84;;;-142.29;36.49
7748;BME280;3918;42.564;23.164;2022-08-19T14:52:19;-11650.84;;;-142.29;36.95
7748;BME280;3918;42.564;23.164;2022-08-19T14:54:46;-11650.84;;;-142.29;37.63
7748;BME280;3918;42.564;23.164;2022-08-19T14:57:13;-11650.84;;;-142.29;36.68
7748;BME280;3918;42.564;23.164;2022-08-19T14:59:41;-11650.84;;;-142.29;37.20
7748;BME280;3918;42.564;23.164;2022-08-19T15:02:09;-11650.84;;;-142.29;37.13
7748;BME280;3918;42.564;23.164;2022-08-19T15:04:36;-11650.84;;;-142.29;36.92
7748;BME280;3918;42.564;23.164;2022-08-19T15:07:03;-11650.84;;;-142.29;37.26
7748;BME280;3918;42.564;23.164;2022-08-19T15:09:30;-11650.84;;;-142.29;37.59
7748;BME280;3918;42.564;23.164;2022-08-19T15:11:57;-11650.84;;;-142.29;36.92
7748;BME280;3918;42.564;23.164;2022-08-19T15:14:25;-11650.84;;;-142.29;37.69
7748;BME280;3918;42.564;23.164;2022-08-19T15:16:53;-11650.84;;;-142.29;37.04
7748;BME280;3918;42.564;23.164;2022-08-19T15:19:21;-11650.84;;;-142.29;37.04
7748;BME280;3918;42.564;23.164;2022-08-19T15:21:49;-11650.84;;;-142.29;36.76
7748;BME280;3918;42.564;23.164;2022-08-19T15:24:15;-11650.84;;;-142.29;37.81
7748;BME280;3918;42.564;23.164;2022-08-19T15:26:42;-11650.84;;;-142.29;37.68
7748;BME280;3918;42.564;23.164;2022-08-19T15:29:09;-11650.84;;;-142.29;38.73
7748;BME280;3918;42.564;23.164;2022-08-19T15:31:38;-11650.84;;;-142.29;38.54
7748;BME280;3918;42.564;23.164;2022-08-19T15:34:05;-11650.84;;;-142.29;38.44
7748;BME280;3918;42.564;23.164;2022-08-19T15:36:33;-11650.84;;;-142.29;37.51
7748;BME280;3918;42.564;23.164;2022-08-19T15:39:01;-11650.84;;;-142.29;37.98
7748;BME280;3918;42.564;23.164;2022-08-19T15:41:29;-11650.84;;;-142.29;38.28
7748;BME280;3918;42.564;23.164;2022-08-19T15:43:58;-11650.84;;;-142.29;38.16
7748;BME280;3918;42.564;23.164;2022-08-19T15:46:28;-11650.84;;;-142.29;38.19
7748;BME280;3918;42.564;23.164;2022-08-19T15:48:55;-11650.84;;;-142.29;38.26
7748;BME280;3918;42.564;23.164;2022-08-19T15:51:22;-11650.84;;;-142.29;38.62
7748;BME280;3918;42.564;23.164;2022-08-19T15:53:51;-11650.84;;;-142.29;39.10
7748;BME280;3918;42.564;23.164;2022-08-19T15:56:18;-11650.84;;;-142.29;38.84
7748;BME280;3918;42.564;23.164;2022-08-19T15:58:45;-11650.84;;;-142.29;39.02
7748;BME280;3918;42.564;23.164;2022-08-19T16:01:40;-11650.84;;;-142.29;38.08
7748;BME280;3918;42.564;23.164;2022-08-19T16:04:24;-11650.84;;;-142.29;38.42
7748;BME280;3918;42.564;23.164;2022-08-19T16:07:09;-11650.84;;;-142.29;38.42
7748;BME280;3918;42.564;23.164;2022-08-19T16:09:38;-11650.84;;;-142.29;38.64
7748;BME280;3918;42.564;23.164;2022-08-19T16:12:05;-11650.84;;;-142.29;38.82
7748;BME280;3918;42.564;23.164;2022-08-19T16:14:34;-11650.84;;;-142.29;39.09
7748;BME280;3918;42.564;23.164;2022-08-19T16:17:02;-11650.84;;;-142.29;39.06
7748;BME280;3918;42.564;23.164;2022-08-19T16:19:29;-11650.84;;;-142.29;39.41
7748;BME280;3918;42.564;23.164;2022-08-19T16:21:56;-11650.84;;;-142.29;39.48
7748;BME280;3918;42.564;23.164;2022-08-19T16:24:26;-11650.84;;;-142.29;39.25
7748;BME280;3918;42.564;23.164;2022-08-19T16:26:55;-11650.84;;;-142.29;38.84
7748;BME280;3918;42.564;23.164;2022-08-19T16:29:27;-11650.84;;;-142.29;39.07
7748;BME280;3918;42.564;23.164;2022-08-19T16:31:54;-11650.84;;;-142.29;39.25
7748;BME280;3918;42.564;23.164;2022-08-19T16:34:22;-11650.84;;;-142.29;39.89
7748;BME280;3918;42.564;23.164;2022-08-19T16:36:49;-11650.84;;;-142.29;40.02
7748;BME280;3918;42.564;23.164;2022-08-19T16:39:17;-11650.84;;;-142.29;40.26
7748;BME280;3918;42.564;23.164;2022-08-19T16:41:44;-11650.84;;;-142.29;40.14
7748;BME280;3918;42.564;23.164;2022-08-19T16:44:14;-11650.84;;;-142.29;40.42
7748;BME280;3918;42.564;23.164;2022-08-19T16:46:42;-11650.84;;;-142.29;40.69
7748;BME280;3918;42.564;23.164;2022-08-19T16:49:09;-11650.84;;;-142.29;44.16
7748;BME280;3918;42.564;23.164;2022-08-19T16:51:37;-11650.84;;;-142.29;46.78
7748;BME280;3918;42.564;23.164;2022-08-19T16:54:04;-11650.84;;;-142.29;48.22
7748;BME280;3918;42.564;23.164;2022-08-19T16:56:31;-11650.84;;;-142.29;49.96
7748;BME280;3918;42.564;23.164;2022-08-19T16:58:58;-11650.84;;;-142.29;51.78
7748;BME280;3918;42.564;23.164;2022-08-19T17:01:27;-11650.84;;;-142.29;52.91
7748;BME280;3918;42.564;23.164;2022-08-19T17:03:54;-11650.84;;;-142.29;54.34
7748;BME280;3918;42.564;23.164;2022-08-19T17:06:24;-11650.84;;;-142.29;55.94
7748;BME280;3918;42.564;23.164;2022-08-19T17:08:53;-11650.84;;;-142.29;57.09
7748;BME280;3918;42.564;23.164;2022-08-19T17:11:21;-11650.84;;;-142.29;57.89
7748;BME280;3918;42.564;23.164;2022-08-19T17:13:50;-11650.84;;;-142.29;58.45
7748;BME280;3918;42.564;23.164;2022-08-19T17:16:18;-11650.84;;;-142.29;59.50
7748;BME280;3918;42.564;23.164;2022-08-19T17:18:47;-11650.84;;;-142.29;59.95
7748;BME280;3918;42.564;23.164;2022-08-19T17:21:17;-11650.84;;;-142.29;61.15
7748;BME280;3918;42.564;23.164;2022-08-19T17:23:44;-11650.84;;;-142.29;61.58
7748;BME280;3918;42.564;23.164;2022-08-19T17:26:11;-11650.84;;;-142.29;62.26
7748;BME280;3918;42.564;23.164;2022-08-19T17:28:38;-11650.84;;;-142.29;62.15
7748;BME280;3918;42.564;23.164;2022-08-19T17:31:05;-11650.84;;;-142.29;62.72
7748;BME280;3918;42.564;23.164;2022-08-19T17:33:33;-11650.84;;;-142.29;62.45
7748;BME280;3918;42.564;23.164;2022-08-19T17:36:01;-11650.84;;;-142.29;62.78
7748;BME280;3918;42.564;23.164;2022-08-19T17:38:30;-11650.84;;;-142.29;62.21
7748;BME280;3918;42.564;23.164;2022-08-19T17:40:58;-11650.84;;;-142.29;60.82
7748;BME280;3918;42.564;23.164;2022-08-19T17:43:30;-11650.84;;;-142.29;61.55
7748;BME280;3918;42.564;23.164;2022-08-19T17:45:57;-11650.84;;;-142.29;63.41
7748;BME280;3918;42.564;23.164;2022-08-19T17:48:27;-11650.84;;;-142.29;63.29
7748;BME280;3918;42.564;23.164;2022-08-19T17:50:54;-11650.84;;;-142.29;63.24